Ride Results

Eden Creek Oct (03-10-2010)
Ride distance: 82.0 km

Outcomes - Eden Creek Oct (03-10-2010)
Division No. of Entries Retired / DNE Completed Withdrawn Ineligible V/O Percentage Completed
HW 4 - 4 - - - 100.00%
MW 12 - 11 1 - - 91.67%
LW 4 - 3 - - 1 75.00%
JN 3 - 3 - - - 100.00%
Totals 23 - 21 1 - 1 91.30%
Results - Eden Creek Oct (03-10-2010)
No. Rider Horse Place Time Leg Speeds Total
Km/Hr
H/R bpm
Heavyweight
17 Phil Coleman Alnotarj Statistic 1 (BC) 6:24:00 12.5, 13.0 12.81 38, 46, 46 (Avg:46)
4 Will Standfield Stanpark Little Joe 2 6:53:00 12.8, 11.1 11.91 51, 42, 51 (Avg:46)
14 Greg Lyon Kaayler Park Kazzam 3 7:42:00 11.6, 9.8 10.65 33, 38, 45 (Avg:41)
16 Terry McMurrrich Amir Jasara 4 7:58:00 10.4, 10.1 10.29 40, 40, 47 (Avg:43)
Middleweight
13 Caroline Fitzgerald Lanamere Kudos 1 5:25:00 17.2, 13.5 15.14 38, 44, 45 (Avg:44)
7 Kirsty Owen Heartfire Hafiz 2 5:48:00 17.3, 11.9 14.14 30, 49, 45 (Avg:47)
1 Cindy Day Stanpark Rupert 3 5:52:00 17.2, 11.8 13.98 36, 43, 51 (Avg:47)
23 Melinda Watters Spud 4 6:03:00 13.0, 14.0 13.55 28, 38, 47 (Avg:42)
18 Peter Kelly Ramalea Laila 5 6:13:00 12.9, 13.4 13.19 36, 38, 44 (Avg:41)
5 Rhys Rayner Stanpark Ruby 6 6:53:00 12.8, 11.1 11.91 43, 46, 43 (Avg:44)
10 Rachael Keys Elfar Salute 7 7:18:00 12.9, 9.9 11.23 47, 42, 45 (Avg:43)
20 Leeanne Bartlett Bonnie Downs Rarby 8 7:42:00 12.3, 9.4 10.65 39, 38, 51 (Avg:44)
21 Megan Prior Al Wathba Nikalis 8 7:42:00 12.3, 9.4 10.65 36, 40, 42 (Avg:41)
22 Yvonne Hain Milgarra Sinzano 10 8:05:00 12.2, 8.7 10.14 36, 43, 46 (Avg:44)
12 Andrea Laws-King Heathfield's Roxy 10 8:05:00 12.3, 8.6 10.14 39, 46, 49 (Avg:47)
9 Angela Georgopoulos Elfar Saffire Withdrawn L2 0:00:00 - - 28, 39, 42 (Avg:40)
Lightweight
8 Clare Fleming Splendacrest Superb 1 (BC) 5:25:00 17.3, 13.4 15.14 34, 49, 43 (Avg:46)
11 Judy Battams El Rebel Stimulator 2 6:28:00 17.3, 10.0 12.68 39, 46, 54 (Avg:50)
15 Abby McMurrich Nyora Veleta 3 7:58:00 10.4, 10.1 10.29 37, 42, 54 (Avg:48)
19 Xanthe Webb Woodbourne Evan Lame L1 0:00:00 12.3 - 39, 47 (Avg:47)
Junior
3 Billie Standfield Stanpark Meg 1 (BC) 5:52:00 15.1, 12.9 13.98 37, 43, 44 (Avg:43)
6 Jenna Watts Sandine Carlingford 2 5:58:00 12.9, 14.5 13.74 38, 40, 39 (Avg:39)
2 Hannah Houlden Lara's Song 3 6:06:00 13.0, 13.8 13.44 42, 42, 50 (Avg:46)